Time;durP1;ratioP1;P1;durP2;ratioP2;P2;SDS_P1;SDS_P2;PMS_P1;PMS_P2;Temp;Humidity;BMP_temperature;BMP_pressure;BME280_temperature;BME280_humidity;BME280_pressure;Samples;Min_cycle;Max_cycle;Signal;HPM_P1;HPM_P2
2023/09/28 00:02:23;;;;;;;;;;;16.90;99.90;;;;;;4993018;28;19984;-67
2023/09/28 00:04:50;;;;;;;;;;;16.90;99.90;;;;;;4992584;28;19964;-67
2023/09/28 00:07:19;;;;;;;;;;;16.90;99.90;;;;;;4993880;28;19933;-67
2023/09/28 00:09:47;;;;;;;;;;;16.90;99.90;;;;;;4995127;28;19976;-69
2023/09/28 00:12:15;;;;;;;;;;;16.90;99.90;;;;;;4998262;28;20304;-66
2023/09/28 00:14:43;;;;;;;;;;;16.90;99.90;;;;;;4992341;28;19928;-70
2023/09/28 00:17:10;;;;;;;;;;;16.90;99.90;;;;;;4992667;28;20348;-68
2023/09/28 00:19:38;;;;;;;;;;;16.90;99.90;;;;;;4992406;28;19922;-68
2023/09/28 00:22:05;;;;;;;;;;;16.90;99.90;;;;;;4993707;28;19921;-68
2023/09/28 00:24:34;;;;;;;;;;;16.90;99.90;;;;;;5010576;28;19928;-68
2023/09/28 00:27:00;;;;;;;;;;;16.90;99.90;;;;;;4993262;28;19922;-68
2023/09/28 00:29:29;;;;;;;;;;;16.90;99.90;;;;;;4992323;28;19926;-69
2023/09/28 00:31:56;;;;;;;;;;;16.90;99.90;;;;;;4992160;28;19922;-67
2023/09/28 00:34:24;;;;;;;;;;;17.00;99.90;;;;;;4992340;28;19928;-67
2023/09/28 00:36:51;;;;;;;;;;;17.00;99.90;;;;;;4992216;28;19968;-68
2023/09/28 00:39:18;;;;;;;;;;;17.00;99.90;;;;;;4999462;28;20355;-69
2023/09/28 00:41:45;;;;;;;;;;;17.00;99.90;;;;;;4999310;28;19980;-67
2023/09/28 00:44:13;;;;;;;;;;;17.00;99.90;;;;;;5007734;28;19922;-68
2023/09/28 00:46:42;;;;;;;;;;;16.90;99.90;;;;;;4999442;28;19967;-67
2023/09/28 00:49:13;;;;;;;;;;;16.90;99.90;;;;;;4991936;28;20009;-68
2023/09/28 00:51:40;;;;;;;;;;;16.90;99.90;;;;;;4993167;28;19926;-67
2023/09/28 00:54:11;;;;;;;;;;;16.90;99.90;;;;;;4992352;28;19921;-67
2023/09/28 00:56:38;;;;;;;;;;;16.80;99.90;;;;;;4992127;28;19922;-67
2023/09/28 00:59:06;;;;;;;;;;;16.80;99.90;;;;;;4991626;28;19926;-68
2023/09/28 01:01:32;;;;;;;;;;;16.80;99.90;;;;;;4992187;28;19928;-67
2023/09/28 01:04:05;;;;;;;;;;;16.90;99.90;;;;;;4991816;28;19921;-67
2023/09/28 01:06:33;;;;;;;;;;;17.00;99.90;;;;;;4993665;28;19929;-67
2023/09/28 01:09:01;;;;;;;;;;;17.00;99.90;;;;;;4993217;28;19922;-67
2023/09/28 01:11:28;;;;;;;;;;;16.90;99.90;;;;;;4993616;28;19921;-67
2023/09/28 01:13:57;;;;;;;;;;;16.90;99.90;;;;;;4993705;28;20020;-67
2023/09/28 01:16:26;;;;;;;;;;;17.00;99.90;;;;;;4996860;28;20333;-67
2023/09/28 01:18:53;;;;;;;;;;;17.00;99.90;;;;;;4994164;28;19921;-67
2023/09/28 01:21:22;;;;;;;;;;;17.00;99.90;;;;;;4993645;28;20017;-68
2023/09/28 01:23:51;;;;;;;;;;;17.00;99.90;;;;;;4994859;28;20376;-66
2023/09/28 01:26:19;;;;;;;;;;;17.00;99.90;;;;;;4991678;28;19929;-67
2023/09/28 01:28:46;;;;;;;;;;;17.00;99.90;;;;;;4991576;28;19926;-66
2023/09/28 01:31:14;;;;;;;;;;;17.00;99.90;;;;;;4991704;28;19972;-67
2023/09/28 01:33:42;;;;;;;;;;;17.00;99.90;;;;;;4991621;28;19921;-68
2023/09/28 01:36:10;;;;;;;;;;;17.00;99.90;;;;;;4991360;28;19980;-67
2023/09/28 01:38:39;;;;;;;;;;;17.00;99.90;;;;;;4996030;28;19921;-67
2023/09/28 01:41:08;;;;;;;;;;;17.10;99.90;;;;;;5000835;28;19928;-67
2023/09/28 01:43:36;;;;;;;;;;;17.10;99.90;;;;;;4995845;28;19932;-68
2023/09/28 01:46:04;;;;;;;;;;;17.10;99.90;;;;;;4991166;28;20478;-67
2023/09/28 01:48:31;;;;;;;;;;;17.10;99.90;;;;;;4991696;28;19928;-68
2023/09/28 01:51:01;;;;;;;;;;;17.20;99.90;;;;;;4995145;28;20377;-66
2023/09/28 01:53:28;;;;;;;;;;;17.10;99.90;;;;;;4999947;28;19926;-67
2023/09/28 01:55:59;;;;;;;;;;;17.10;99.90;;;;;;4994971;28;19926;-67
2023/09/28 01:58:27;;;;;;;;;;;17.10;99.90;;;;;;5002990;28;19926;-70
2023/09/28 02:00:55;;;;;;;;;;;17.10;99.90;;;;;;4994959;28;19928;-68
2023/09/28 02:03:22;;;;;;;;;;;17.10;99.90;;;;;;4995233;28;20316;-66
2023/09/28 02:05:50;;;;;;;;;;;17.00;99.90;;;;;;4995005;28;19932;-66
2023/09/28 02:08:16;;;;;;;;;;;17.00;99.90;;;;;;4994912;28;19928;-67
2023/09/28 02:10:44;;;;;;;;;;;17.00;99.90;;;;;;4997440;28;19921;-67
2023/09/28 02:13:11;;;;;;;;;;;16.90;99.90;;;;;;4999790;28;19922;-67
2023/09/28 02:15:42;;;;;;;;;;;16.90;99.90;;;;;;4994879;28;19921;-67
2023/09/28 02:18:09;;;;;;;;;;;16.90;99.90;;;;;;4994866;28;19921;-68
2023/09/28 02:20:36;;;;;;;;;;;16.90;99.90;;;;;;4994613;28;19922;-67
2023/09/28 02:23:04;;;;;;;;;;;16.90;99.90;;;;;;4994631;28;19992;-66
2023/09/28 02:25:32;;;;;;;;;;;16.90;99.90;;;;;;4995225;28;19921;-66
2023/09/28 02:27:59;;;;;;;;;;;16.90;99.90;;;;;;5005982;28;20490;-66
2023/09/28 02:30:27;;;;;;;;;;;16.90;99.90;;;;;;5001876;28;20364;-67
2023/09/28 02:32:55;;;;;;;;;;;16.70;99.90;;;;;;4994419;28;20393;-67
2023/09/28 02:35:24;;;;;;;;;;;16.70;99.90;;;;;;4994520;28;19921;-66
2023/09/28 02:37:52;;;;;;;;;;;16.80;99.90;;;;;;4994607;28;20384;-66
2023/09/28 02:40:20;;;;;;;;;;;16.80;99.90;;;;;;4998312;28;19932;-68
2023/09/28 02:42:48;;;;;;;;;;;16.80;99.90;;;;;;4999637;28;19921;-66
2023/09/28 02:45:16;;;;;;;;;;;16.80;99.90;;;;;;4998377;28;19922;-68
2023/09/28 02:47:44;;;;;;;;;;;16.80;99.90;;;;;;4999636;28;20020;-67
2023/09/28 02:50:16;;;;;;;;;;;16.90;99.90;;;;;;4994128;28;19976;-67
2023/09/28 02:52:45;;;;;;;;;;;16.80;99.90;;;;;;4994294;28;19926;-67
2023/09/28 02:55:13;;;;;;;;;;;16.80;99.90;;;;;;4993990;28;20016;-68
2023/09/28 02:57:40;;;;;;;;;;;16.80;99.90;;;;;;4994213;28;19929;-67
2023/09/28 03:00:24;;;;;;;;;;;16.80;99.90;;;;;;4998343;28;19972;-67
2023/09/28 03:02:52;;;;;;;;;;;16.80;99.90;;;;;;4994254;28;19922;-68
2023/09/28 03:05:22;;;;;;;;;;;16.80;99.90;;;;;;4993874;28;19922;-66
2023/09/28 03:07:49;;;;;;;;;;;16.80;99.90;;;;;;4994238;28;19929;-68
2023/09/28 03:10:19;;;;;;;;;;;16.90;99.90;;;;;;4994527;28;19922;-70
2023/09/28 03:12:46;;;;;;;;;;;16.80;99.90;;;;;;4999628;28;19922;-68
2023/09/28 03:15:16;;;;;;;;;;;16.90;99.90;;;;;;4997536;28;20027;-68
2023/09/28 03:17:46;;;;;;;;;;;16.90;99.90;;;;;;4993887;28;19922;-68
2023/09/28 03:20:14;;;;;;;;;;;17.00;99.90;;;;;;4993501;28;20012;-68
2023/09/28 03:22:44;;;;;;;;;;;17.00;99.90;;;;;;4993755;28;19921;-69
2023/09/28 03:25:16;;;;;;;;;;;17.00;99.90;;;;;;4993281;28;19921;-68
2023/09/28 03:27:44;;;;;;;;;;;17.00;99.90;;;;;;4993803;28;19991;-67
2023/09/28 03:30:12;;;;;;;;;;;17.00;99.90;;;;;;4993329;28;19975;-67
2023/09/28 03:32:39;;;;;;;;;;;17.00;99.90;;;;;;4998344;28;19983;-68
2023/09/28 03:35:08;;;;;;;;;;;17.00;99.90;;;;;;4993273;28;19936;-70
2023/09/28 03:37:36;;;;;;;;;;;17.00;99.90;;;;;;4993538;28;19984;-69
2023/09/28 03:40:10;;;;;;;;;;;17.00;99.90;;;;;;5006144;28;19928;-67
2023/09/28 03:42:39;;;;;;;;;;;16.80;99.90;;;;;;5004436;28;20011;-70
2023/09/28 03:45:10;;;;;;;;;;;16.70;99.90;;;;;;5003511;28;19925;-69
2023/09/28 03:47:38;;;;;;;;;;;16.70;99.90;;;;;;4999523;28;19925;-67
2023/09/28 03:50:07;;;;;;;;;;;16.80;99.90;;;;;;4992952;28;19932;-66
2023/09/28 03:52:35;;;;;;;;;;;16.90;99.90;;;;;;4993152;28;20016;-67
2023/09/28 03:55:03;;;;;;;;;;;16.90;99.90;;;;;;4992948;28;20490;-67
2023/09/28 03:57:32;;;;;;;;;;;16.90;99.90;;;;;;4993148;28;19928;-68
2023/09/28 04:00:00;;;;;;;;;;;16.90;99.90;;;;;;4993014;28;19926;-67
2023/09/28 04:02:28;;;;;;;;;;;16.80;99.90;;;;;;4992503;28;19929;-66
2023/09/28 04:04:56;;;;;;;;;;;16.80;99.90;;;;;;4999259;28;19957;-66
2023/09/28 04:07:25;;;;;;;;;;;16.80;99.90;;;;;;5001089;28;19936;-68
2023/09/28 04:09:53;;;;;;;;;;;16.70;99.90;;;;;;4992791;28;19925;-67
2023/09/28 04:12:21;;;;;;;;;;;16.70;99.90;;;;;;5006699;28;20276;-67
2023/09/28 04:14:50;;;;;;;;;;;16.70;99.90;;;;;;5000724;28;19936;-67
2023/09/28 04:17:18;;;;;;;;;;;16.60;99.90;;;;;;4992567;28;19992;-67
2023/09/28 04:19:46;;;;;;;;;;;16.60;99.90;;;;;;4990217;28;19975;-66
2023/09/28 04:22:14;;;;;;;;;;;16.50;99.90;;;;;;4997479;28;20731;-68
2023/09/28 04:24:42;;;;;;;;;;;16.50;99.90;;;;;;4999435;28;19933;-66
2023/09/28 04:27:10;;;;;;;;;;;16.50;99.90;;;;;;4999396;28;19930;-65
2023/09/28 04:29:38;;;;;;;;;;;16.50;99.90;;;;;;4995046;28;19929;-65
2023/09/28 04:32:07;;;;;;;;;;;16.40;99.90;;;;;;4999730;28;19925;-68
2023/09/28 04:34:35;;;;;;;;;;;16.40;99.90;;;;;;5000541;28;20415;-66
2023/09/28 04:37:04;;;;;;;;;;;16.30;99.90;;;;;;4999636;28;19925;-67
2023/09/28 04:39:34;;;;;;;;;;;16.40;99.90;;;;;;4996754;28;19929;-65
2023/09/28 04:42:01;;;;;;;;;;;16.30;99.90;;;;;;4998779;28;19976;-67
2023/09/28 04:44:29;;;;;;;;;;;16.30;99.90;;;;;;4998836;28;19933;-67
2023/09/28 04:46:57;;;;;;;;;;;16.30;99.90;;;;;;4996592;28;19925;-67
2023/09/28 04:49:26;;;;;;;;;;;16.20;99.90;;;;;;4996930;28;19980;-65
2023/09/28 04:51:54;;;;;;;;;;;16.10;99.90;;;;;;4999630;28;19995;-66
2023/09/28 04:54:22;;;;;;;;;;;16.10;99.90;;;;;;4999244;28;20003;-67
2023/09/28 04:56:50;;;;;;;;;;;16.10;99.90;;;;;;4997122;28;19934;-69
2023/09/28 04:59:18;;;;;;;;;;;16.10;99.90;;;;;;4995272;28;20446;-66
2023/09/28 05:01:46;;;;;;;;;;;16.10;99.90;;;;;;4999752;28;20420;-66
2023/09/28 05:04:13;;;;;;;;;;;16.10;99.90;;;;;;4999723;28;19929;-70
2023/09/28 05:06:43;;;;;;;;;;;16.10;99.90;;;;;;4999701;28;20406;-66
2023/09/28 05:09:13;;;;;;;;;;;16.00;99.90;;;;;;4996536;28;19956;-71
2023/09/28 05:11:41;;;;;;;;;;;15.90;99.90;;;;;;4997676;28;20312;-68
2023/09/28 05:14:08;;;;;;;;;;;15.90;99.90;;;;;;4998026;28;19925;-70
2023/09/28 05:16:36;;;;;;;;;;;15.90;99.90;;;;;;4997824;28;20706;-69
2023/09/28 05:19:04;;;;;;;;;;;16.00;99.90;;;;;;4996950;28;20020;-66
2023/09/28 05:21:32;;;;;;;;;;;15.90;99.90;;;;;;4996873;28;21688;-66
2023/09/28 05:24:01;;;;;;;;;;;15.90;99.90;;;;;;4999331;28;19929;-68
2023/09/28 05:26:29;;;;;;;;;;;15.90;99.90;;;;;;5000168;28;19929;-65
2023/09/28 05:28:57;;;;;;;;;;;15.90;99.90;;;;;;4996804;28;19929;-66
2023/09/28 05:31:25;;;;;;;;;;;15.80;99.90;;;;;;5002471;28;19931;-66
2023/09/28 05:33:54;;;;;;;;;;;15.80;99.90;;;;;;5003286;28;19930;-67
2023/09/28 05:36:22;;;;;;;;;;;15.80;99.90;;;;;;5003324;28;19925;-67
2023/09/28 05:38:52;;;;;;;;;;;15.80;99.90;;;;;;5000154;28;19929;-68
2023/09/28 05:41:22;;;;;;;;;;;15.80;99.90;;;;;;5000403;28;19994;-68
2023/09/28 05:43:49;;;;;;;;;;;15.70;99.90;;;;;;5001360;28;20631;-68
2023/09/28 05:46:17;;;;;;;;;;;15.70;99.90;;;;;;5001934;28;19929;-68
2023/09/28 05:48:45;;;;;;;;;;;15.70;99.90;;;;;;4999683;28;19937;-70
2023/09/28 05:51:13;;;;;;;;;;;15.60;99.90;;;;;;4998144;28;20356;-66
2023/09/28 05:53:41;;;;;;;;;;;15.60;99.90;;;;;;4996824;28;20423;-68
2023/09/28 05:56:11;;;;;;;;;;;15.70;99.90;;;;;;4996185;28;19933;-67
2023/09/28 05:58:41;;;;;;;;;;;15.70;99.90;;;;;;5003206;28;19922;-67
2023/09/28 06:01:13;;;;;;;;;;;15.70;99.90;;;;;;5003785;28;19929;-69
2023/09/28 06:03:42;;;;;;;;;;;15.70;99.90;;;;;;5008638;28;19933;-68
2023/09/28 06:06:13;;;;;;;;;;;15.70;99.90;;;;;;5010037;28;19928;-65
2023/09/28 06:08:40;;;;;;;;;;;15.70;99.90;;;;;;5010917;28;19921;-67
2023/09/28 06:11:10;;;;;;;;;;;15.60;99.90;;;;;;5002661;28;19929;-68
2023/09/28 06:13:41;;;;;;;;;;;15.60;99.90;;;;;;5006227;28;19921;-67
2023/09/28 06:16:28;;;;;;;;;;;15.60;99.90;;;;;;4996424;28;19965;-68
2023/09/28 06:18:56;;;;;;;;;;;15.60;99.90;;;;;;4993959;28;19921;-68
2023/09/28 06:21:24;;;;;;;;;;;15.70;99.90;;;;;;4996956;28;19921;-68
2023/09/28 06:23:51;;;;;;;;;;;15.80;99.90;;;;;;4993920;28;19933;-67
2023/09/28 06:26:19;;;;;;;;;;;16.00;99.90;;;;;;4994777;28;19921;-67
2023/09/28 06:29:07;;;;;;;;;;;16.10;99.90;;;;;;4999961;28;19929;-67
2023/09/28 06:31:35;;;;;;;;;;;16.20;99.90;;;;;;4994540;28;19922;-66
2023/09/28 06:34:03;;;;;;;;;;;16.40;99.90;;;;;;4994334;28;20356;-67
2023/09/28 06:36:32;;;;;;;;;;;16.50;99.90;;;;;;5003632;28;19933;-68
2023/09/28 06:39:04;;;;;;;;;;;16.60;99.90;;;;;;5005736;28;20376;-67
2023/09/28 06:41:32;;;;;;;;;;;16.70;99.90;;;;;;4996607;28;20016;-67
2023/09/28 06:43:59;;;;;;;;;;;16.80;99.90;;;;;;4994245;28;19967;-66
2023/09/28 06:46:29;;;;;;;;;;;16.80;99.90;;;;;;4994190;28;20305;-69
2023/09/28 06:48:58;;;;;;;;;;;16.90;99.90;;;;;;4994481;28;19969;-69
2023/09/28 06:51:27;;;;;;;;;;;17.00;99.90;;;;;;5002238;28;19960;-67
2023/09/28 06:53:55;;;;;;;;;;;17.10;99.90;;;;;;5002118;28;20045;-67
2023/09/28 06:56:22;;;;;;;;;;;17.20;99.90;;;;;;4993988;28;19922;-65
2023/09/28 06:58:51;;;;;;;;;;;17.30;99.90;;;;;;4998648;28;19925;-67
2023/09/28 07:01:19;;;;;;;;;;;17.40;99.90;;;;;;4998025;28;20344;-67
2023/09/28 07:03:52;;;;;;;;;;;17.50;99.90;;;;;;4994050;28;19922;-67
2023/09/28 07:06:22;;;;;;;;;;;17.50;99.90;;;;;;4993973;28;20015;-67
2023/09/28 07:08:49;;;;;;;;;;;17.60;99.90;;;;;;4997967;28;19983;-66
2023/09/28 07:11:19;;;;;;;;;;;17.60;99.90;;;;;;5004774;28;19930;-66
2023/09/28 07:13:47;;;;;;;;;;;17.60;99.90;;;;;;4993547;28;19921;-67
2023/09/28 07:16:15;;;;;;;;;;;17.60;99.90;;;;;;4993760;28;19925;-68
2023/09/28 07:18:42;;;;;;;;;;;17.50;99.90;;;;;;4993756;28;19937;-67
2023/09/28 07:21:11;;;;;;;;;;;17.60;99.90;;;;;;4993986;28;19922;-67
2023/09/28 07:23:41;;;;;;;;;;;17.60;99.90;;;;;;4993509;28;19921;-66
2023/09/28 07:26:12;;;;;;;;;;;17.70;99.90;;;;;;5000278;28;20021;-68
2023/09/28 07:28:40;;;;;;;;;;;17.80;99.90;;;;;;4993430;28;19922;-66
2023/09/28 07:31:08;;;;;;;;;;;17.80;99.90;;;;;;4993712;28;19961;-66
2023/09/28 07:33:36;;;;;;;;;;;17.90;99.90;;;;;;4993062;28;19998;-67
2023/09/28 07:36:05;;;;;;;;;;;17.90;99.90;;;;;;4993463;28;20010;-67
2023/09/28 07:38:35;;;;;;;;;;;18.00;99.90;;;;;;4993328;28;19965;-67
2023/09/28 07:41:03;;;;;;;;;;;18.10;99.90;;;;;;4993535;28;19975;-67
2023/09/28 07:43:31;;;;;;;;;;;18.20;99.90;;;;;;5001601;28;19960;-67
2023/09/28 07:45:58;;;;;;;;;;;18.30;99.90;;;;;;4991935;28;19930;-67
2023/09/28 07:48:26;;;;;;;;;;;18.50;99.90;;;;;;4992626;28;19958;-68
2023/09/28 07:50:54;;;;;;;;;;;18.60;99.90;;;;;;4993500;28;19962;-67
2023/09/28 07:53:22;;;;;;;;;;;18.70;99.90;;;;;;4993409;28;20326;-67
2023/09/28 07:55:51;;;;;;;;;;;18.80;99.90;;;;;;4992855;28;19967;-67
2023/09/28 07:58:19;;;;;;;;;;;18.90;99.90;;;;;;5000959;28;20018;-66
2023/09/28 08:00:54;;;;;;;;;;;19.00;99.90;;;;;;4993403;28;20022;-68
2023/09/28 08:03:22;;;;;;;;;;;19.20;99.90;;;;;;5000530;28;19963;-67
2023/09/28 08:05:52;;;;;;;;;;;19.40;99.90;;;;;;4993046;28;19960;-67
2023/09/28 08:08:19;;;;;;;;;;;19.70;99.90;;;;;;4993315;28;19969;-69
2023/09/28 08:10:48;;;;;;;;;;;19.80;99.90;;;;;;4992924;28;19964;-67
2023/09/28 08:13:17;;;;;;;;;;;20.10;99.90;;;;;;4994115;28;19964;-68
2023/09/28 08:15:45;;;;;;;;;;;20.40;99.90;;;;;;5000887;28;20014;-66
2023/09/28 08:18:14;;;;;;;;;;;20.50;99.90;;;;;;4992990;28;19971;-67
2023/09/28 08:20:43;;;;;;;;;;;20.60;99.90;;;;;;4992670;28;20071;-67
2023/09/28 08:23:22;;;;;;;;;;;20.60;99.90;;;;;;4992739;28;20018;-67
2023/09/28 08:25:50;;;;;;;;;;;20.60;99.90;;;;;;4992580;28;19960;-67
2023/09/28 08:28:19;;;;;;;;;;;20.60;99.90;;;;;;4993080;28;19964;-67
2023/09/28 08:30:47;;;;;;;;;;;20.80;99.90;;;;;;4994900;28;19963;-67
2023/09/28 08:33:16;;;;;;;;;;;20.90;99.90;;;;;;4996714;28;20319;-68
2023/09/28 08:35:47;;;;;;;;;;;21.10;99.90;;;;;;5007278;28;19960;-67
2023/09/28 08:38:15;;;;;;;;;;;21.20;99.90;;;;;;4997983;28;19979;-68
2023/09/28 08:40:43;;;;;;;;;;;21.30;99.90;;;;;;4992427;28;19974;-69
2023/09/28 08:45:43;;;;;;;;;;;21.70;99.90;;;;;;5045603;28;19970;-67
2023/09/28 08:48:12;;;;;;;;;;;21.90;99.90;;;;;;5051269;28;19970;-66
2023/09/28 08:50:39;;;;;;;;;;;21.90;99.90;;;;;;5045805;28;19966;-66
2023/09/28 08:53:09;;;;;;;;;;;22.10;99.90;;;;;;5051388;28;19969;-69
2023/09/28 08:55:37;;;;;;;;;;;22.10;99.90;;;;;;5070904;28;19959;-67
2023/09/28 08:58:06;;;;;;;;;;;22.20;99.90;;;;;;5070987;28;19962;-67
2023/09/28 09:00:34;;;;;;;;;;;22.40;99.90;;;;;;5067882;28;19960;-66
2023/09/28 09:03:04;;;;;;;;;;;22.60;99.90;;;;;;5066066;28;20006;-66
2023/09/28 09:05:33;;;;;;;;;;;22.60;99.90;;;;;;5071233;28;20315;-67
2023/09/28 09:08:01;;;;;;;;;;;22.90;99.90;;;;;;5071326;28;19965;-68
2023/09/28 09:10:30;;;;;;;;;;;23.20;99.90;;;;;;5071212;28;19958;-67
2023/09/28 09:12:58;;;;;;;;;;;23.30;99.90;;;;;;5078877;28;19958;-67
2023/09/28 09:15:26;;;;;;;;;;;23.40;99.90;;;;;;5080101;28;19962;-67
2023/09/28 09:17:58;;;;;;;;;;;23.60;99.90;;;;;;5071030;28;19966;-66
2023/09/28 09:20:29;;;;;;;;;;;23.90;99.90;;;;;;5071351;28;19970;-67
2023/09/28 09:23:10;;;;;;;;;;;24.20;99.90;;;;;;5070769;28;19996;-67
2023/09/28 09:25:40;;;;;;;;;;;24.60;99.90;;;;;;5062282;28;20008;-67
2023/09/28 09:28:08;;;;;;;;;;;24.90;99.90;;;;;;5071192;28;19958;-67
2023/09/28 09:30:36;;;;;;;;;;;24.90;99.90;;;;;;5071342;28;20008;-67
2023/09/28 09:33:06;;;;;;;;;;;24.80;99.90;;;;;;5069281;28;19959;-67
2023/09/28 09:35:38;;;;;;;;;;;24.80;99.90;;;;;;5070396;28;19963;-67
2023/09/28 09:38:06;;;;;;;;;;;24.80;99.90;;;;;;5062580;28;19986;-67
2023/09/28 09:40:35;;;;;;;;;;;25.20;99.90;;;;;;5071016;28;19972;-68
2023/09/28 09:43:06;;;;;;;;;;;25.30;99.90;;;;;;5085429;28;20053;-67
2023/09/28 09:45:36;;;;;;;;;;;25.40;99.90;;;;;;5082564;28;19958;-67
2023/09/28 09:48:06;;;;;;;;;;;25.60;99.90;;;;;;5051015;28;19994;-67
2023/09/28 09:50:36;;;;;;;;;;;25.70;99.90;;;;;;5050992;28;20057;-67
2023/09/28 09:53:05;;;;;;;;;;;26.00;99.90;;;;;;5050723;28;20058;-67
2023/09/28 09:55:35;;;;;;;;;;;26.00;99.90;;;;;;5050623;28;20419;-68
2023/09/28 09:58:08;;;;;;;;;;;26.40;99.90;;;;;;5051130;28;19973;-67
2023/09/28 10:00:37;;;;;;;;;;;26.70;99.90;;;;;;5050725;28;19965;-67
2023/09/28 10:03:06;;;;;;;;;;;26.90;99.90;;;;;;5050797;28;19963;-67
2023/09/28 10:05:34;;;;;;;;;;;26.90;99.90;;;;;;5050793;28;20415;-68
2023/09/28 10:08:05;;;;;;;;;;;26.80;99.90;;;;;;5050718;28;20003;-67
2023/09/28 10:10:34;;;;;;;;;;;26.80;99.90;;;;;;5052628;28;19962;-67
2023/09/28 10:13:02;;;;;;;;;;;26.80;99.90;;;;;;5083113;28;20015;-68
2023/09/28 10:15:30;;;;;;;;;;;26.90;99.90;;;;;;5087168;28;20305;-67
2023/09/28 10:17:58;;;;;;;;;;;26.90;99.90;;;;;;5055057;28;20330;-68
2023/09/28 10:20:26;;;;;;;;;;;26.80;99.90;;;;;;5054370;28;19965;-68
2023/09/28 10:22:55;;;;;;;;;;;27.00;99.90;;;;;;5058854;28;19963;-66
2023/09/28 10:25:25;;;;;;;;;;;27.10;99.90;;;;;;5062269;28;19959;-68
2023/09/28 10:27:58;;;;;;;;;;;27.20;99.90;;;;;;5054132;28;19962;-69
2023/09/28 10:30:26;;;;;;;;;;;27.10;99.90;;;;;;5054330;28;20371;-67
2023/09/28 10:32:55;;;;;;;;;;;27.40;99.90;;;;;;5053845;28;20062;-68
2023/09/28 10:35:24;;;;;;;;;;;27.60;99.90;;;;;;5054185;28;20341;-67
2023/09/28 10:38:11;;;;;;;;;;;27.80;99.90;;;;;;5053651;28;19969;-67
2023/09/28 10:40:41;;;;;;;;;;;27.90;99.90;;;;;;5055698;28;20081;-67
2023/09/28 10:43:27;;;;;;;;;;;27.80;99.90;;;;;;5087243;28;20386;-67
2023/09/28 10:45:55;;;;;;;;;;;28.00;99.90;;;;;;5065084;28;20032;-67
2023/09/28 10:48:23;;;;;;;;;;;28.00;99.90;;;;;;5053743;28;20025;-67
2023/09/28 10:50:52;;;;;;;;;;;28.30;99.90;;;;;;5061818;28;20531;-67
2023/09/28 10:53:19;;;;;;;;;;;28.20;99.90;;;;;;5053524;28;20315;-66
2023/09/28 10:55:48;;;;;;;;;;;28.40;99.90;;;;;;5054940;28;19959;-66
2023/09/28 10:58:17;;;;;;;;;;;28.60;99.90;;;;;;5053651;28;20008;-70
2023/09/28 11:00:45;;;;;;;;;;;28.80;99.90;;;;;;5053400;28;19970;-67
2023/09/28 11:03:13;;;;;;;;;;;29.00;99.90;;;;;;5053734;28;19958;-68
2023/09/28 11:05:41;;;;;;;;;;;29.50;99.90;;;;;;5053538;28;19959;-67
2023/09/28 11:08:09;;;;;;;;;;;29.40;99.60;;;;;;5053447;28;20009;-69
2023/09/28 11:10:36;;;;;;;;;;;29.50;99.90;;;;;;5053881;28;19966;-67
2023/09/28 11:13:06;;;;;;;;;;;29.80;99.60;;;;;;5079609;28;19958;-67
2023/09/28 11:15:34;;;;;;;;;;;29.90;98.70;;;;;;5081193;28;19958;-68
2023/09/28 11:18:02;;;;;;;;;;;30.00;97.40;;;;;;5053948;28;19962;-67
2023/09/28 11:20:31;;;;;;;;;;;29.80;97.70;;;;;;5053219;28;19965;-68
2023/09/28 11:22:59;;;;;;;;;;;29.90;98.40;;;;;;5052733;28;19966;-67
2023/09/28 11:25:27;;;;;;;;;;;29.80;98.20;;;;;;5052949;28;19989;-67
2023/09/28 11:28:13;;;;;;;;;;;29.60;98.80;;;;;;5053097;28;19962;-68
2023/09/28 11:30:42;;;;;;;;;;;29.40;99.00;;;;;;5052692;28;19959;-67
2023/09/28 11:33:09;;;;;;;;;;;29.30;99.40;;;;;;5052737;28;19981;-67
2023/09/28 11:35:38;;;;;;;;;;;29.30;99.00;;;;;;5061005;28;20008;-67
2023/09/28 11:38:09;;;;;;;;;;;29.00;98.40;;;;;;5052545;28;20069;-68
2023/09/28 11:40:38;;;;;;;;;;;28.70;99.50;;;;;;5052753;28;19958;-67
2023/09/28 11:43:06;;;;;;;;;;;28.70;99.70;;;;;;5079041;28;20012;-67
2023/09/28 11:45:36;;;;;;;;;;;28.70;99.90;;;;;;5085997;28;20027;-68
2023/09/28 11:48:05;;;;;;;;;;;29.00;99.40;;;;;;5053785;28;20012;-68
2023/09/28 11:50:34;;;;;;;;;;;29.00;97.90;;;;;;5052303;28;20429;-68
2023/09/28 11:53:02;;;;;;;;;;;29.00;97.60;;;;;;5060955;28;20004;-68
2023/09/28 11:55:30;;;;;;;;;;;29.30;97.50;;;;;;5052404;28;19958;-68
2023/09/28 11:57:59;;;;;;;;;;;29.70;97.50;;;;;;5052276;28;19967;-68
2023/09/28 12:00:26;;;;;;;;;;;29.80;97.10;;;;;;5055395;28;19963;-68
2023/09/28 12:02:56;;;;;;;;;;;30.10;96.50;;;;;;5054929;28;19967;-68
2023/09/28 12:05:24;;;;;;;;;;;30.50;96.20;;;;;;5056854;28;20053;-67
2023/09/28 12:07:51;;;;;;;;;;;30.40;95.40;;;;;;5055147;28;19967;-67
2023/09/28 12:10:20;;;;;;;;;;;30.50;96.00;;;;;;5052248;28;19962;-67
2023/09/28 12:12:48;;;;;;;;;;;30.70;95.30;;;;;;5077658;28;19961;-67
2023/09/28 12:15:16;;;;;;;;;;;31.10;94.90;;;;;;5077795;28;20445;-67
2023/09/28 12:17:44;;;;;;;;;;;30.80;94.00;;;;;;5052064;28;20371;-67
2023/09/28 12:20:14;;;;;;;;;;;30.80;94.30;;;;;;5051419;28;19959;-68
2023/09/28 12:22:42;;;;;;;;;;;30.90;94.60;;;;;;5051910;28;19990;-67
2023/09/28 12:25:13;;;;;;;;;;;30.90;94.20;;;;;;5051431;28;19963;-67
2023/09/28 12:27:44;;;;;;;;;;;30.80;94.60;;;;;;5051856;28;19994;-67
2023/09/28 12:30:16;;;;;;;;;;;30.60;94.80;;;;;;5054407;28;19967;-67
2023/09/28 12:32:45;;;;;;;;;;;30.60;95.10;;;;;;5055839;28;19965;-67
2023/09/28 12:35:15;;;;;;;;;;;30.40;94.90;;;;;;5051372;28;20009;-68
2023/09/28 12:37:44;;;;;;;;;;;30.70;95.00;;;;;;5058752;28;20434;-67
2023/09/28 12:40:13;;;;;;;;;;;30.80;94.30;;;;;;5052016;28;20010;-67
2023/09/28 12:42:41;;;;;;;;;;;30.90;95.00;;;;;;5075008;28;19962;-67
2023/09/28 12:45:09;;;;;;;;;;;31.10;94.40;;;;;;5088605;28;19962;-67
2023/09/28 12:47:37;;;;;;;;;;;30.90;94.50;;;;;;5062697;28;20436;-67
2023/09/28 12:50:05;;;;;;;;;;;31.10;94.50;;;;;;5053574;28;19970;-68
2023/09/28 12:52:34;;;;;;;;;;;30.90;93.90;;;;;;5051531;28;19965;-67
2023/09/28 12:55:03;;;;;;;;;;;30.60;94.60;;;;;;5050717;28;20441;-68
2023/09/28 12:57:31;;;;;;;;;;;30.70;94.50;;;;;;5051303;28;19959;-67
2023/09/28 12:59:58;;;;;;;;;;;31.00;94.60;;;;;;5051204;28;20052;-68
2023/09/28 13:02:26;;;;;;;;;;;30.90;93.70;;;;;;5051395;28;19984;-67
2023/09/28 13:04:54;;;;;;;;;;;31.10;94.10;;;;;;5051940;28;19963;-69
2023/09/28 13:07:25;;;;;;;;;;;31.10;94.10;;;;;;5051219;28;20100;-68
2023/09/28 13:09:54;;;;;;;;;;;31.30;94.70;;;;;;5051331;28;20016;-67
2023/09/28 13:12:22;;;;;;;;;;;31.40;93.10;;;;;;5069154;28;19962;-67
2023/09/28 13:14:50;;;;;;;;;;;31.40;93.70;;;;;;5090799;28;20484;-67
2023/09/28 13:17:19;;;;;;;;;;;31.30;93.00;;;;;;5059500;28;19959;-67
2023/09/28 13:19:48;;;;;;;;;;;30.90;93.20;;;;;;5058058;28;20020;-66
2023/09/28 13:22:15;;;;;;;;;;;30.70;93.40;;;;;;5052128;28;19973;-66
2023/09/28 13:24:43;;;;;;;;;;;30.50;93.90;;;;;;5050804;28;19959;-67
2023/09/28 13:27:12;;;;;;;;;;;30.50;93.80;;;;;;5050668;28;20491;-67
2023/09/28 13:29:40;;;;;;;;;;;30.30;94.20;;;;;;5051220;28;20020;-69
2023/09/28 13:32:12;;;;;;;;;;;30.30;94.40;;;;;;5050894;28;20029;-68
2023/09/28 13:34:42;;;;;;;;;;;30.20;94.40;;;;;;5053594;28;19998;-70
2023/09/28 13:37:10;;;;;;;;;;;30.20;94.30;;;;;;5050448;28;19963;-67
2023/09/28 13:39:38;;;;;;;;;;;30.20;94.30;;;;;;5051028;28;19965;-67
2023/09/28 13:42:06;;;;;;;;;;;30.20;95.00;;;;;;5067212;28;20391;-67
2023/09/28 13:44:35;;;;;;;;;;;30.10;94.90;;;;;;5066526;28;20009;-68
2023/09/28 13:47:05;;;;;;;;;;;29.80;95.30;;;;;;5054482;28;19963;-68
2023/09/28 13:49:33;;;;;;;;;;;29.90;95.10;;;;;;5054778;28;19959;-67
2023/09/28 13:52:03;;;;;;;;;;;30.00;94.80;;;;;;5054267;28;19962;-67
2023/09/28 13:54:31;;;;;;;;;;;30.10;94.50;;;;;;5054497;28;20456;-67
2023/09/28 13:57:00;;;;;;;;;;;30.30;95.00;;;;;;5054543;28;19963;-67
2023/09/28 13:59:28;;;;;;;;;;;30.30;94.90;;;;;;5046657;28;19996;-67
2023/09/28 14:01:58;;;;;;;;;;;30.40;94.20;;;;;;5054765;28;19963;-68
2023/09/28 14:04:26;;;;;;;;;;;30.60;94.10;;;;;;5046885;28;20081;-68
2023/09/28 14:06:55;;;;;;;;;;;30.50;93.80;;;;;;5053720;28;19963;-67
2023/09/28 14:09:26;;;;;;;;;;;30.40;94.10;;;;;;5053899;28;20425;-68
2023/09/28 14:11:55;;;;;;;;;;;30.20;94.30;;;;;;5059834;28;19962;-68
2023/09/28 14:14:24;;;;;;;;;;;30.20;94.30;;;;;;5054324;28;20016;-68
2023/09/28 14:16:52;;;;;;;;;;;30.00;94.80;;;;;;5053933;28;19978;-67
2023/09/28 14:19:24;;;;;;;;;;;29.90;94.90;;;;;;5054092;28;19965;-67
2023/09/28 14:21:52;;;;;;;;;;;29.70;95.00;;;;;;5054226;28;19974;-68
2023/09/28 14:24:20;;;;;;;;;;;29.70;95.10;;;;;;5053918;28;19963;-66
2023/09/28 14:26:47;;;;;;;;;;;29.60;95.50;;;;;;5053871;28;20413;-67
2023/09/28 14:29:15;;;;;;;;;;;29.40;95.70;;;;;;5053901;28;19986;-68